sensor_id;sensor_type;location;lat;lon;timestamp;pressure;altitude;pressure_sealevel;temperature;humidity
77855;BME280;67046;50.088;14.336;2023-04-09T00:00:25;98313.65;;;4.96;70.50
77855;BME280;67046;50.088;14.336;2023-04-09T00:01:17;98314.73;;;4.96;70.81
77855;BME280;67046;50.088;14.336;2023-04-09T00:01:49;98314.60;;;4.96;70.57
77855;BME280;67046;50.088;14.336;2023-04-09T00:02:21;98316.47;;;4.96;70.82
77855;BME280;67046;50.088;14.336;2023-04-09T00:02:53;98315.19;;;4.98;70.72
77855;BME280;67046;50.088;14.336;2023-04-09T00:03:25;98319.48;;;5.00;70.61
77855;BME280;67046;50.088;14.336;2023-04-09T00:03:57;98312.73;;;5.01;70.50
77855;BME280;67046;50.088;14.336;2023-04-09T00:04:29;98316.33;;;5.03;70.64
77855;BME280;67046;50.088;14.336;2023-04-09T00:05:01;98314.04;;;5.05;70.66
77855;BME280;67046;50.088;14.336;2023-04-09T00:05:38;98312.83;;;5.06;70.60
77855;BME280;67046;50.088;14.336;2023-04-09T00:06:10;98309.90;;;5.07;70.70
77855;BME280;67046;50.088;14.336;2023-04-09T00:06:43;98311.16;;;5.08;70.52
77855;BME280;67046;50.088;14.336;2023-04-09T00:07:15;98312.29;;;5.09;70.38
77855;BME280;67046;50.088;14.336;2023-04-09T00:07:47;98312.63;;;5.08;70.57
77855;BME280;67046;50.088;14.336;2023-04-09T00:08:19;98310.28;;;5.08;70.72
77855;BME280;67046;50.088;14.336;2023-04-09T00:08:51;98314.42;;;5.10;70.67
77855;BME280;67046;50.088;14.336;2023-04-09T00:09:23;98314.45;;;5.11;70.91
77855;BME280;67046;50.088;14.336;2023-04-09T00:09:55;98315.37;;;5.12;70.50
77855;BME280;67046;50.088;14.336;2023-04-09T00:10:27;98317.16;;;5.14;70.72
77855;BME280;67046;50.088;14.336;2023-04-09T00:10:59;98313.95;;;5.15;70.52
77855;BME280;67046;50.088;14.336;2023-04-09T00:11:31;98315.70;;;5.17;70.46
77855;BME280;67046;50.088;14.336;2023-04-09T00:12:03;98317.85;;;5.17;70.56
77855;BME280;67046;50.088;14.336;2023-04-09T00:12:35;98314.97;;;5.15;70.44
77855;BME280;67046;50.088;14.336;2023-04-09T00:13:08;98317.00;;;5.14;70.53
77855;BME280;67046;50.088;14.336;2023-04-09T00:13:40;98318.87;;;5.15;70.46
77855;BME280;67046;50.088;14.336;2023-04-09T00:14:12;98316.02;;;5.16;70.33
77855;BME280;67046;50.088;14.336;2023-04-09T00:14:44;98317.15;;;5.16;70.29
77855;BME280;67046;50.088;14.336;2023-04-09T00:15:16;98312.39;;;5.16;70.42
77855;BME280;67046;50.088;14.336;2023-04-09T00:15:48;98314.21;;;5.17;70.35
77855;BME280;67046;50.088;14.336;2023-04-09T00:16:20;98316.54;;;5.18;70.56
77855;BME280;67046;50.088;14.336;2023-04-09T00:16:52;98315.04;;;5.19;70.27
77855;BME280;67046;50.088;14.336;2023-04-09T00:17:24;98316.46;;;5.20;70.29
77855;BME280;67046;50.088;14.336;2023-04-09T00:17:56;98314.47;;;5.21;70.38
77855;BME280;67046;50.088;14.336;2023-04-09T00:18:28;98313.55;;;5.23;70.43
77855;BME280;67046;50.088;14.336;2023-04-09T00:19:00;98313.77;;;5.24;70.41
77855;BME280;67046;50.088;14.336;2023-04-09T00:19:34;98310.95;;;5.25;70.32
77855;BME280;67046;50.088;14.336;2023-04-09T00:20:06;98313.08;;;5.27;70.32
77855;BME280;67046;50.088;14.336;2023-04-09T00:20:38;98309.05;;;5.28;70.44
77855;BME280;67046;50.088;14.336;2023-04-09T00:21:10;98310.95;;;5.30;70.34
77855;BME280;67046;50.088;14.336;2023-04-09T00:21:42;98312.25;;;5.29;70.03
77855;BME280;67046;50.088;14.336;2023-04-09T00:22:14;98310.72;;;5.29;70.31
77855;BME280;67046;50.088;14.336;2023-04-09T00:22:46;98310.58;;;5.30;70.02
77855;BME280;67046;50.088;14.336;2023-04-09T00:23:22;98312.87;;;5.31;70.44
77855;BME280;67046;50.088;14.336;2023-04-09T00:23:53;98311.66;;;5.33;70.17
77855;BME280;67046;50.088;14.336;2023-04-09T00:24:26;98308.83;;;5.33;70.36
77855;BME280;67046;50.088;14.336;2023-04-09T00:24:57;98310.38;;;5.35;70.31
77855;BME280;67046;50.088;14.336;2023-04-09T00:25:29;98313.20;;;5.36;70.42
77855;BME280;67046;50.088;14.336;2023-04-09T00:26:01;98310.76;;;5.37;70.09
77855;BME280;67046;50.088;14.336;2023-04-09T00:26:33;98310.27;;;5.39;70.22
77855;BME280;67046;50.088;14.336;2023-04-09T00:27:05;98309.58;;;5.40;70.31
77855;BME280;67046;50.088;14.336;2023-04-09T00:27:37;98309.02;;;5.42;70.28
77855;BME280;67046;50.088;14.336;2023-04-09T00:28:09;98307.75;;;5.42;70.11
77855;BME280;67046;50.088;14.336;2023-04-09T00:28:41;98306.49;;;5.41;69.91
77855;BME280;67046;50.088;14.336;2023-04-09T00:29:13;98307.93;;;5.40;70.00
77855;BME280;67046;50.088;14.336;2023-04-09T00:29:45;98303.70;;;5.39;70.13
77855;BME280;67046;50.088;14.336;2023-04-09T00:30:18;98303.22;;;5.40;70.00
77855;BME280;67046;50.088;14.336;2023-04-09T00:30:50;98304.98;;;5.40;69.93
77855;BME280;67046;50.088;14.336;2023-04-09T00:31:22;98302.23;;;5.40;70.09
77855;BME280;67046;50.088;14.336;2023-04-09T00:31:54;98300.50;;;5.39;69.87
77855;BME280;67046;50.088;14.336;2023-04-09T00:32:26;98306.83;;;5.41;70.08
77855;BME280;67046;50.088;14.336;2023-04-09T00:32:58;98305.15;;;5.40;70.08
77855;BME280;67046;50.088;14.336;2023-04-09T00:33:30;98302.14;;;5.40;70.11
77855;BME280;67046;50.088;14.336;2023-04-09T00:34:02;98306.95;;;5.41;69.91
77855;BME280;67046;50.088;14.336;2023-04-09T00:34:34;98302.31;;;5.42;69.93
77855;BME280;67046;50.088;14.336;2023-04-09T00:35:07;98307.80;;;5.44;70.15
77855;BME280;67046;50.088;14.336;2023-04-09T00:35:39;98306.58;;;5.46;70.02
77855;BME280;67046;50.088;14.336;2023-04-09T00:36:11;98310.50;;;5.48;69.97
77855;BME280;67046;50.088;14.336;2023-04-09T00:36:43;98308.56;;;5.49;69.89
77855;BME280;67046;50.088;14.336;2023-04-09T00:37:16;98311.55;;;5.50;69.80
77855;BME280;67046;50.088;14.336;2023-04-09T00:37:48;98312.59;;;5.52;69.84
77855;BME280;67046;50.088;14.336;2023-04-09T00:38:20;98311.25;;;5.53;69.97
77855;BME280;67046;50.088;14.336;2023-04-09T00:38:52;98312.53;;;5.55;69.81
77855;BME280;67046;50.088;14.336;2023-04-09T00:39:24;98308.05;;;5.56;69.77
77855;BME280;67046;50.088;14.336;2023-04-09T00:39:56;98310.81;;;5.57;69.89
77855;BME280;67046;50.088;14.336;2023-04-09T00:40:29;98315.24;;;5.58;69.65
77855;BME280;67046;50.088;14.336;2023-04-09T00:41:01;98310.30;;;5.58;69.92
77855;BME280;67046;50.088;14.336;2023-04-09T00:41:33;98315.59;;;5.59;69.50
77855;BME280;67046;50.088;14.336;2023-04-09T00:42:05;98312.23;;;5.59;69.34
77855;BME280;67046;50.088;14.336;2023-04-09T00:42:37;98309.19;;;5.60;69.44
77855;BME280;67046;50.088;14.336;2023-04-09T00:43:09;98311.61;;;5.60;69.59
77855;BME280;67046;50.088;14.336;2023-04-09T00:43:41;98311.34;;;5.61;69.27
77855;BME280;67046;50.088;14.336;2023-04-09T00:44:13;98315.02;;;5.62;69.40
77855;BME280;67046;50.088;14.336;2023-04-09T00:44:44;98315.27;;;5.63;69.53
77855;BME280;67046;50.088;14.336;2023-04-09T00:45:16;98314.98;;;5.64;69.27
77855;BME280;67046;50.088;14.336;2023-04-09T00:45:48;98314.73;;;5.64;69.13
77855;BME280;67046;50.088;14.336;2023-04-09T00:46:21;98312.55;;;5.65;69.27
77855;BME280;67046;50.088;14.336;2023-04-09T00:46:53;98314.86;;;5.66;69.43
77855;BME280;67046;50.088;14.336;2023-04-09T00:47:26;98316.02;;;5.66;69.53
77855;BME280;67046;50.088;14.336;2023-04-09T00:48:01;98318.30;;;5.68;69.50
77855;BME280;67046;50.088;14.336;2023-04-09T00:48:33;98316.86;;;5.68;69.23
77855;BME280;67046;50.088;14.336;2023-04-09T00:49:05;98319.21;;;5.69;69.51
77855;BME280;67046;50.088;14.336;2023-04-09T00:49:37;98315.46;;;5.70;69.47
77855;BME280;67046;50.088;14.336;2023-04-09T00:50:10;98316.13;;;5.71;69.20
77855;BME280;67046;50.088;14.336;2023-04-09T00:50:42;98316.02;;;5.74;69.13
77855;BME280;67046;50.088;14.336;2023-04-09T00:51:14;98314.48;;;5.75;69.33
77855;BME280;67046;50.088;14.336;2023-04-09T00:51:47;98310.70;;;5.75;69.28
77855;BME280;67046;50.088;14.336;2023-04-09T00:52:19;98312.70;;;5.77;69.33
77855;BME280;67046;50.088;14.336;2023-04-09T00:52:52;98309.23;;;5.78;69.12
77855;BME280;67046;50.088;14.336;2023-04-09T00:53:24;98310.09;;;5.79;69.26
77855;BME280;67046;50.088;14.336;2023-04-09T00:53:56;98310.92;;;5.77;69.12
77855;BME280;67046;50.088;14.336;2023-04-09T00:54:28;98309.16;;;5.75;69.26
77855;BME280;67046;50.088;14.336;2023-04-09T00:55:03;98307.80;;;5.75;69.18
77855;BME280;67046;50.088;14.336;2023-04-09T00:55:36;98310.20;;;5.75;69.05
77855;BME280;67046;50.088;14.336;2023-04-09T00:56:11;98307.83;;;5.75;69.01
77855;BME280;67046;50.088;14.336;2023-04-09T00:56:44;98308.00;;;5.75;69.16
77855;BME280;67046;50.088;14.336;2023-04-09T00:57:17;98305.38;;;5.75;68.90
77855;BME280;67046;50.088;14.336;2023-04-09T00:57:49;98306.17;;;5.75;69.06
77855;BME280;67046;50.088;14.336;2023-04-09T00:58:21;98303.13;;;5.76;68.81
77855;BME280;67046;50.088;14.336;2023-04-09T00:58:53;98306.80;;;5.76;68.98
77855;BME280;67046;50.088;14.336;2023-04-09T00:59:25;98303.13;;;5.76;68.99
77855;BME280;67046;50.088;14.336;2023-04-09T00:59:58;98305.61;;;5.74;69.03
77855;BME280;67046;50.088;14.336;2023-04-09T01:00:30;98301.65;;;5.75;68.69
77855;BME280;67046;50.088;14.336;2023-04-09T01:01:02;98303.27;;;5.74;69.07
77855;BME280;67046;50.088;14.336;2023-04-09T01:01:34;98308.42;;;5.73;69.10
77855;BME280;67046;50.088;14.336;2023-04-09T01:02:06;98308.05;;;5.73;69.04
77855;BME280;67046;50.088;14.336;2023-04-09T01:02:39;98306.48;;;5.73;68.94
77855;BME280;67046;50.088;14.336;2023-04-09T01:03:11;98303.94;;;5.73;69.23
77855;BME280;67046;50.088;14.336;2023-04-09T01:03:43;98306.09;;;5.72;68.95
77855;BME280;67046;50.088;14.336;2023-04-09T01:04:15;98305.47;;;5.71;68.96
77855;BME280;67046;50.088;14.336;2023-04-09T01:04:48;98303.80;;;5.71;68.85
77855;BME280;67046;50.088;14.336;2023-04-09T01:05:21;98305.56;;;5.69;68.60
77855;BME280;67046;50.088;14.336;2023-04-09T01:06:20;98305.04;;;5.69;68.85
77855;BME280;67046;50.088;14.336;2023-04-09T01:06:59;98301.31;;;5.67;69.24
77855;BME280;67046;50.088;14.336;2023-04-09T01:07:57;98304.11;;;5.65;69.22
77855;BME280;67046;50.088;14.336;2023-04-09T01:08:40;98304.57;;;5.63;69.02
77855;BME280;67046;50.088;14.336;2023-04-09T01:10:10;98306.26;;;5.61;69.02
77855;BME280;67046;50.088;14.336;2023-04-09T01:10:49;98309.71;;;5.60;69.38
77855;BME280;67046;50.088;14.336;2023-04-09T01:11:53;98311.35;;;5.59;69.26
77855;BME280;67046;50.088;14.336;2023-04-09T01:12:51;98309.42;;;5.59;69.25
77855;BME280;67046;50.088;14.336;2023-04-09T01:13:58;98315.79;;;5.59;69.23
77855;BME280;67046;50.088;14.336;2023-04-09T01:14:34;98318.20;;;5.57;69.53
77855;BME280;67046;50.088;14.336;2023-04-09T01:15:10;98313.61;;;5.58;69.44
77855;BME280;67046;50.088;14.336;2023-04-09T01:15:51;98308.54;;;5.58;69.22
77855;BME280;67046;50.088;14.336;2023-04-09T01:16:24;98309.29;;;5.57;69.32
77855;BME280;67046;50.088;14.336;2023-04-09T01:17:10;98314.31;;;5.56;69.34
77855;BME280;67046;50.088;14.336;2023-04-09T01:17:48;98311.33;;;5.55;69.40
77855;BME280;67046;50.088;14.336;2023-04-09T01:18:28;98308.45;;;5.54;69.19
77855;BME280;67046;50.088;14.336;2023-04-09T01:19:23;98308.71;;;5.54;69.53
77855;BME280;67046;50.088;14.336;2023-04-09T01:20:39;98305.48;;;5.53;69.49
77855;BME280;67046;50.088;14.336;2023-04-09T01:21:15;98310.41;;;5.53;69.54
77855;BME280;67046;50.088;14.336;2023-04-09T01:21:49;98308.55;;;5.54;69.54
77855;BME280;67046;50.088;14.336;2023-04-09T01:23:28;98311.81;;;5.53;69.50
77855;BME280;67046;50.088;14.336;2023-04-09T01:24:37;98306.56;;;5.51;69.69
77855;BME280;67046;50.088;14.336;2023-04-09T01:27:06;98310.44;;;5.48;69.49
77855;BME280;67046;50.088;14.336;2023-04-09T01:27:51;98312.67;;;5.46;69.73
77855;BME280;67046;50.088;14.336;2023-04-09T01:28:39;98313.08;;;5.45;69.43
77855;BME280;67046;50.088;14.336;2023-04-09T01:29:14;98310.16;;;5.45;69.80
77855;BME280;67046;50.088;14.336;2023-04-09T01:29:50;98310.58;;;5.46;69.71
77855;BME280;67046;50.088;14.336;2023-04-09T01:30:25;98312.44;;;5.46;69.53
77855;BME280;67046;50.088;14.336;2023-04-09T01:31:05;98308.33;;;5.47;69.46
77855;BME280;67046;50.088;14.336;2023-04-09T01:31:38;98310.08;;;5.49;69.57
77855;BME280;67046;50.088;14.336;2023-04-09T01:32:15;98307.29;;;5.48;69.37
77855;BME280;67046;50.088;14.336;2023-04-09T01:32:48;98310.65;;;5.49;69.48
77855;BME280;67046;50.088;14.336;2023-04-09T01:33:23;98314.02;;;5.51;69.54
77855;BME280;67046;50.088;14.336;2023-04-09T01:33:56;98310.20;;;5.52;69.50
77855;BME280;67046;50.088;14.336;2023-04-09T01:34:29;98314.92;;;5.53;69.59
77855;BME280;67046;50.088;14.336;2023-04-09T01:35:02;98316.30;;;5.54;69.47
77855;BME280;67046;50.088;14.336;2023-04-09T01:35:35;98317.77;;;5.55;69.25
77855;BME280;67046;50.088;14.336;2023-04-09T01:36:07;98312.08;;;5.56;69.41
77855;BME280;67046;50.088;14.336;2023-04-09T01:36:40;98319.16;;;5.57;69.54
77855;BME280;67046;50.088;14.336;2023-04-09T01:37:14;98317.81;;;5.58;69.56
77855;BME280;67046;50.088;14.336;2023-04-09T01:37:48;98320.23;;;5.58;69.85
77855;BME280;67046;50.088;14.336;2023-04-09T01:38:20;98314.98;;;5.59;69.29
77855;BME280;67046;50.088;14.336;2023-04-09T01:38:54;98310.45;;;5.61;69.55
77855;BME280;67046;50.088;14.336;2023-04-09T01:39:27;98312.80;;;5.62;69.40
77855;BME280;67046;50.088;14.336;2023-04-09T01:40:00;98313.45;;;5.62;69.33
77855;BME280;67046;50.088;14.336;2023-04-09T01:40:32;98313.98;;;5.63;69.43
77855;BME280;67046;50.088;14.336;2023-04-09T01:41:06;98313.59;;;5.64;69.32
77855;BME280;67046;50.088;14.336;2023-04-09T01:41:40;98309.08;;;5.65;69.13
77855;BME280;67046;50.088;14.336;2023-04-09T01:42:14;98308.96;;;5.66;69.61
77855;BME280;67046;50.088;14.336;2023-04-09T01:42:47;98308.36;;;5.66;69.59
77855;BME280;67046;50.088;14.336;2023-04-09T01:43:20;98309.25;;;5.68;69.39
77855;BME280;67046;50.088;14.336;2023-04-09T01:43:53;98304.98;;;5.68;69.21
77855;BME280;67046;50.088;14.336;2023-04-09T01:44:26;98307.70;;;5.70;69.31
77855;BME280;67046;50.088;14.336;2023-04-09T01:45:00;98307.96;;;5.71;69.36
77855;BME280;67046;50.088;14.336;2023-04-09T01:45:33;98306.71;;;5.73;69.30
77855;BME280;67046;50.088;14.336;2023-04-09T01:46:08;98307.21;;;5.73;69.21
77855;BME280;67046;50.088;14.336;2023-04-09T01:46:41;98310.19;;;5.72;69.32
77855;BME280;67046;50.088;14.336;2023-04-09T01:47:14;98307.60;;;5.71;69.25
77855;BME280;67046;50.088;14.336;2023-04-09T01:47:46;98308.58;;;5.72;69.56
77855;BME280;67046;50.088;14.336;2023-04-09T01:48:19;98305.19;;;5.72;69.37
77855;BME280;67046;50.088;14.336;2023-04-09T01:48:52;98307.02;;;5.74;69.28
77855;BME280;67046;50.088;14.336;2023-04-09T01:49:24;98308.77;;;5.74;69.23
77855;BME280;67046;50.088;14.336;2023-04-09T01:49:57;98309.33;;;5.75;69.45
77855;BME280;67046;50.088;14.336;2023-04-09T01:50:29;98308.54;;;5.76;69.32
77855;BME280;67046;50.088;14.336;2023-04-09T01:51:03;98307.59;;;5.78;69.22
77855;BME280;67046;50.088;14.336;2023-04-09T01:51:35;98309.21;;;5.79;69.08
77855;BME280;67046;50.088;14.336;2023-04-09T01:52:08;98310.77;;;5.81;69.21
77855;BME280;67046;50.088;14.336;2023-04-09T01:52:40;98306.64;;;5.81;69.35
77855;BME280;67046;50.088;14.336;2023-04-09T01:53:13;98310.86;;;5.83;69.47
77855;BME280;67046;50.088;14.336;2023-04-09T01:53:45;98303.79;;;5.83;69.37
77855;BME280;67046;50.088;14.336;2023-04-09T01:54:17;98312.52;;;5.84;69.21
77855;BME280;67046;50.088;14.336;2023-04-09T01:54:49;98307.83;;;5.83;69.26
77855;BME280;67046;50.088;14.336;2023-04-09T01:55:21;98312.11;;;5.84;69.05
77855;BME280;67046;50.088;14.336;2023-04-09T01:56:02;98306.17;;;5.84;69.06
77855;BME280;67046;50.088;14.336;2023-04-09T01:56:45;98304.85;;;5.83;69.15
77855;BME280;67046;50.088;14.336;2023-04-09T01:57:18;98303.00;;;5.83;69.06
77855;BME280;67046;50.088;14.336;2023-04-09T01:57:50;98303.19;;;5.83;69.00
77855;BME280;67046;50.088;14.336;2023-04-09T01:58:23;98303.59;;;5.84;69.21
77855;BME280;67046;50.088;14.336;2023-04-09T01:58:55;98304.60;;;5.84;69.20
77855;BME280;67046;50.088;14.336;2023-04-09T01:59:27;98304.56;;;5.84;69.24
77855;BME280;67046;50.088;14.336;2023-04-09T01:59:59;98298.67;;;5.84;69.03
77855;BME280;67046;50.088;14.336;2023-04-09T02:00:36;98299.10;;;5.85;69.06
77855;BME280;67046;50.088;14.336;2023-04-09T02:01:12;98301.41;;;5.84;69.01
77855;BME280;67046;50.088;14.336;2023-04-09T02:01:54;98302.08;;;5.85;69.27
77855;BME280;67046;50.088;14.336;2023-04-09T02:02:36;98304.04;;;5.84;69.21
77855;BME280;67046;50.088;14.336;2023-04-09T02:03:28;98308.40;;;5.83;69.21
77855;BME280;67046;50.088;14.336;2023-04-09T02:04:09;98305.90;;;5.79;68.86
77855;BME280;67046;50.088;14.336;2023-04-09T02:04:46;98306.23;;;5.76;69.11
77855;BME280;67046;50.088;14.336;2023-04-09T02:05:19;98308.20;;;5.75;69.31
77855;BME280;67046;50.088;14.336;2023-04-09T02:06:08;98308.71;;;5.73;69.41
77855;BME280;67046;50.088;14.336;2023-04-09T02:07:12;98305.81;;;5.70;69.18
77855;BME280;67046;50.088;14.336;2023-04-09T02:07:53;98304.45;;;5.64;69.29
77855;BME280;67046;50.088;14.336;2023-04-09T02:08:27;98303.64;;;5.62;69.58
77855;BME280;67046;50.088;14.336;2023-04-09T02:09:01;98304.89;;;5.61;69.53
77855;BME280;67046;50.088;14.336;2023-04-09T02:09:38;98303.69;;;5.59;69.42
77855;BME280;67046;50.088;14.336;2023-04-09T02:10:12;98308.11;;;5.57;69.28
77855;BME280;67046;50.088;14.336;2023-04-09T02:10:49;98304.27;;;5.56;69.72
77855;BME280;67046;50.088;14.336;2023-04-09T02:11:28;98303.77;;;5.54;69.76
77855;BME280;67046;50.088;14.336;2023-04-09T02:12:02;98299.31;;;5.53;69.63
77855;BME280;67046;50.088;14.336;2023-04-09T02:12:36;98298.95;;;5.53;69.98
77855;BME280;67046;50.088;14.336;2023-04-09T02:13:12;98299.75;;;5.53;69.85
77855;BME280;67046;50.088;14.336;2023-04-09T02:13:48;98300.31;;;5.52;70.00
77855;BME280;67046;50.088;14.336;2023-04-09T02:14:21;98299.63;;;5.52;69.88
77855;BME280;67046;50.088;14.336;2023-04-09T02:14:54;98295.48;;;5.52;70.06
77855;BME280;67046;50.088;14.336;2023-04-09T02:15:27;98298.56;;;5.51;70.13
77855;BME280;67046;50.088;14.336;2023-04-09T02:16:00;98300.02;;;5.51;69.91
77855;BME280;67046;50.088;14.336;2023-04-09T02:16:33;98305.77;;;5.51;70.04
77855;BME280;67046;50.088;14.336;2023-04-09T02:17:05;98307.85;;;5.51;70.40
77855;BME280;67046;50.088;14.336;2023-04-09T02:17:37;98306.83;;;5.51;70.09
77855;BME280;67046;50.088;14.336;2023-04-09T02:18:26;98307.98;;;5.51;69.98
77855;BME280;67046;50.088;14.336;2023-04-09T02:18:59;98303.29;;;5.51;69.96
77855;BME280;67046;50.088;14.336;2023-04-09T02:19:39;98310.46;;;5.51;70.07
77855;BME280;67046;50.088;14.336;2023-04-09T02:20:18;98307.48;;;5.51;69.91
77855;BME280;67046;50.088;14.336;2023-04-09T02:20:51;98311.18;;;5.51;70.00
77855;BME280;67046;50.088;14.336;2023-04-09T02:21:23;98309.09;;;5.51;70.32
77855;BME280;67046;50.088;14.336;2023-04-09T02:21:55;98312.39;;;5.51;69.98
77855;BME280;67046;50.088;14.336;2023-04-09T02:22:27;98312.03;;;5.51;70.08
77855;BME280;67046;50.088;14.336;2023-04-09T02:22:59;98313.41;;;5.51;69.83
77855;BME280;67046;50.088;14.336;2023-04-09T02:23:31;98311.93;;;5.52;70.01
77855;BME280;67046;50.088;14.336;2023-04-09T02:24:04;98314.59;;;5.51;70.25
77855;BME280;67046;50.088;14.336;2023-04-09T02:24:37;98314.95;;;5.51;70.04
77855;BME280;67046;50.088;14.336;2023-04-09T02:25:09;98314.75;;;5.52;70.23
77855;BME280;67046;50.088;14.336;2023-04-09T02:25:42;98312.69;;;5.51;70.13
77855;BME280;67046;50.088;14.336;2023-04-09T02:26:15;98312.48;;;5.51;70.02
77855;BME280;67046;50.088;14.336;2023-04-09T02:26:47;98313.71;;;5.52;70.11
77855;BME280;67046;50.088;14.336;2023-04-09T02:27:18;98312.85;;;5.51;70.00
77855;BME280;67046;50.088;14.336;2023-04-09T02:27:51;98313.34;;;5.52;69.90
77855;BME280;67046;50.088;14.336;2023-04-09T02:28:23;98312.46;;;5.52;70.21
77855;BME280;67046;50.088;14.336;2023-04-09T02:28:55;98310.33;;;5.52;70.19
77855;BME280;67046;50.088;14.336;2023-04-09T02:29:27;98312.22;;;5.52;70.05
77855;BME280;67046;50.088;14.336;2023-04-09T02:29:59;98308.44;;;5.53;70.03
77855;BME280;67046;50.088;14.336;2023-04-09T02:30:31;98309.15;;;5.52;70.19
77855;BME280;67046;50.088;14.336;2023-04-09T02:31:03;98308.02;;;5.51;70.09
77855;BME280;67046;50.088;14.336;2023-04-09T02:31:35;98303.61;;;5.51;70.18
77855;BME280;67046;50.088;14.336;2023-04-09T02:32:07;98306.89;;;5.52;70.34
77855;BME280;67046;50.088;14.336;2023-04-09T02:32:39;98300.92;;;5.52;70.28
77855;BME280;67046;50.088;14.336;2023-04-09T02:33:11;98301.27;;;5.52;70.43
77855;BME280;67046;50.088;14.336;2023-04-09T02:33:43;98300.73;;;5.52;70.30
77855;BME280;67046;50.088;14.336;2023-04-09T02:34:15;98298.83;;;5.52;70.29
77855;BME280;67046;50.088;14.336;2023-04-09T02:34:47;98295.89;;;5.53;70.36
77855;BME280;67046;50.088;14.336;2023-04-09T02:35:19;98296.24;;;5.53;70.44
77855;BME280;67046;50.088;14.336;2023-04-09T02:35:51;98295.96;;;5.54;70.59
77855;BME280;67046;50.088;14.336;2023-04-09T02:36:24;98298.30;;;5.53;70.53
77855;BME280;67046;50.088;14.336;2023-04-09T02:36:57;98298.27;;;5.52;70.14
77855;BME280;67046;50.088;14.336;2023-04-09T02:37:29;98294.76;;;5.52;70.49
77855;BME280;67046;50.088;14.336;2023-04-09T02:38:01;98298.23;;;5.52;70.59
77855;BME280;67046;50.088;14.336;2023-04-09T02:38:33;98303.39;;;5.53;70.42
77855;BME280;67046;50.088;14.336;2023-04-09T02:39:05;98300.77;;;5.54;70.54
77855;BME280;67046;50.088;14.336;2023-04-09T02:39:37;98304.90;;;5.56;70.51
77855;BME280;67046;50.088;14.336;2023-04-09T02:40:10;98304.27;;;5.57;70.68
77855;BME280;67046;50.088;14.336;2023-04-09T02:40:42;98304.50;;;5.58;70.66
77855;BME280;67046;50.088;14.336;2023-04-09T02:41:14;98302.20;;;5.58;70.85
77855;BME280;67046;50.088;14.336;2023-04-09T02:41:47;98304.86;;;5.59;70.73
77855;BME280;67046;50.088;14.336;2023-04-09T02:42:19;98301.88;;;5.59;70.76
77855;BME280;67046;50.088;14.336;2023-04-09T02:42:51;98303.55;;;5.60;70.54
77855;BME280;67046;50.088;14.336;2023-04-09T02:43:23;98302.59;;;5.61;70.50
77855;BME280;67046;50.088;14.336;2023-04-09T02:43:55;98302.02;;;5.61;70.58
77855;BME280;67046;50.088;14.336;2023-04-09T02:44:27;98300.60;;;5.61;70.56
77855;BME280;67046;50.088;14.336;2023-04-09T02:44:59;98298.15;;;5.61;70.55
77855;BME280;67046;50.088;14.336;2023-04-09T02:45:31;98303.27;;;5.62;70.54
77855;BME280;67046;50.088;14.336;2023-04-09T02:46:03;98300.95;;;5.63;70.64
77855;BME280;67046;50.088;14.336;2023-04-09T02:46:37;98303.37;;;5.64;70.54
77855;BME280;67046;50.088;14.336;2023-04-09T02:47:09;98301.31;;;5.64;70.27
77855;BME280;67046;50.088;14.336;2023-04-09T02:47:41;98300.02;;;5.64;70.50
77855;BME280;67046;50.088;14.336;2023-04-09T02:48:13;98300.67;;;5.65;70.62
77855;BME280;67046;50.088;14.336;2023-04-09T02:48:45;98302.34;;;5.65;70.51
77855;BME280;67046;50.088;14.336;2023-04-09T02:49:17;98302.07;;;5.66;70.51
77855;BME280;67046;50.088;14.336;2023-04-09T02:49:49;98299.95;;;5.67;70.43
77855;BME280;67046;50.088;14.336;2023-04-09T02:50:21;98301.67;;;5.67;70.27
77855;BME280;67046;50.088;14.336;2023-04-09T02:50:53;98301.39;;;5.67;70.16
77855;BME280;67046;50.088;14.336;2023-04-09T02:51:26;98301.86;;;5.66;70.43
77855;BME280;67046;50.088;14.336;2023-04-09T02:51:58;98300.58;;;5.66;70.33
77855;BME280;67046;50.088;14.336;2023-04-09T02:52:30;98301.98;;;5.66;70.54
77855;BME280;67046;50.088;14.336;2023-04-09T02:53:02;98302.34;;;5.66;70.38
77855;BME280;67046;50.088;14.336;2023-04-09T02:53:34;98303.30;;;5.65;70.47
77855;BME280;67046;50.088;14.336;2023-04-09T02:54:08;98303.73;;;5.64;70.52
77855;BME280;67046;50.088;14.336;2023-04-09T02:54:40;98300.23;;;5.64;70.51
77855;BME280;67046;50.088;14.336;2023-04-09T02:55:12;98303.66;;;5.63;70.64
77855;BME280;67046;50.088;14.336;2023-04-09T02:55:44;98300.98;;;5.64;70.71
77855;BME280;67046;50.088;14.336;2023-04-09T02:56:16;98303.09;;;5.64;70.37
77855;BME280;67046;50.088;14.336;2023-04-09T02:56:48;98303.01;;;5.64;70.63
77855;BME280;67046;50.088;14.336;2023-04-09T02:57:20;98300.64;;;5.65;70.46
77855;BME280;67046;50.088;14.336;2023-04-09T02:57:52;98298.14;;;5.65;70.68
77855;BME280;67046;50.088;14.336;2023-04-09T02:58:24;98301.23;;;5.68;70.64
77855;BME280;67046;50.088;14.336;2023-04-09T02:58:56;98300.02;;;5.69;70.85
77855;BME280;67046;50.088;14.336;2023-04-09T02:59:28;98303.52;;;5.70;70.64
77855;BME280;67046;50.088;14.336;2023-04-09T03:00:00;98301.54;;;5.71;70.59
77855;BME280;67046;50.088;14.336;2023-04-09T03:00:32;98302.02;;;5.72;70.75
77855;BME280;67046;50.088;14.336;2023-04-09T03:01:04;98297.69;;;5.72;70.76
77855;BME280;67046;50.088;14.336;2023-04-09T03:01:36;98297.48;;;5.73;70.33
77855;BME280;67046;50.088;14.336;2023-04-09T03:02:10;98300.58;;;5.74;70.78
77855;BME280;67046;50.088;14.336;2023-04-09T03:02:42;98300.50;;;5.75;70.47
77855;BME280;67046;50.088;14.336;2023-04-09T03:03:14;98300.33;;;5.75;70.69
77855;BME280;67046;50.088;14.336;2023-04-09T03:03:46;98301.98;;;5.75;70.40
77855;BME280;67046;50.088;14.336;2023-04-09T03:04:18;98299.98;;;5.76;70.26
77855;BME280;67046;50.088;14.336;2023-04-09T03:04:50;98302.05;;;5.78;70.62
77855;BME280;67046;50.088;14.336;2023-04-09T03:05:23;98303.84;;;5.79;70.45